createdAt,value
2018-02-06T00:01:14.332Z,-5.40
2018-02-06T00:03:40.543Z,-5.30
2018-02-06T00:06:06.853Z,-5.40
2018-02-06T00:08:33.841Z,-5.60
2018-02-06T00:11:00.391Z,-5.60
2018-02-06T00:13:26.812Z,-5.70
2018-02-06T00:15:53.326Z,-5.80
2018-02-06T00:18:19.533Z,-6.00
2018-02-06T00:20:45.768Z,-6.00
2018-02-06T00:23:11.922Z,-6.10
2018-02-06T00:25:38.279Z,-6.20
2018-02-06T00:28:05.329Z,-6.30
2018-02-06T00:30:31.564Z,-6.30
2018-02-06T00:32:57.860Z,-6.20
2018-02-06T00:35:24.184Z,-6.20
2018-02-06T00:37:50.386Z,-6.20
2018-02-06T00:40:16.624Z,-6.20
2018-02-06T00:42:42.842Z,-6.20
2018-02-06T00:45:09.143Z,-6.10
2018-02-06T00:47:43.117Z,-5.80
2018-02-06T00:50:10.166Z,-5.70
2018-02-06T00:52:36.732Z,-5.70
2018-02-06T00:55:02.970Z,-5.70
2018-02-06T00:57:29.150Z,-5.60
2018-02-06T00:59:56.232Z,-5.70
2018-02-06T01:02:23.497Z,-5.80
2018-02-06T01:04:49.759Z,-5.80
2018-02-06T01:07:15.998Z,-5.80
2018-02-06T01:09:42.187Z,-5.80
2018-02-06T01:12:08.493Z,-5.80
2018-02-06T01:14:36.471Z,-6.00
2018-02-06T01:17:02.796Z,-6.00
2018-02-06T01:19:29.212Z,-6.10
2018-02-06T01:21:55.475Z,-6.20
2018-02-06T01:24:21.652Z,-6.10
2018-02-06T01:26:47.941Z,-6.10
2018-02-06T01:29:14.251Z,-6.10
2018-02-06T01:31:40.498Z,-6.20
2018-02-06T01:34:06.670Z,-6.30
2018-02-06T01:36:33.645Z,-6.40
2018-02-06T01:38:59.886Z,-6.40
2018-02-06T01:41:26.174Z,-6.50
2018-02-06T01:43:53.260Z,-6.70
2018-02-06T01:46:19.550Z,-6.70
2018-02-06T01:48:46.551Z,-6.80
2018-02-06T01:51:12.840Z,-6.80
2018-02-06T01:53:39.205Z,-6.90
2018-02-06T01:56:05.432Z,-7.00
2018-02-06T01:58:31.758Z,-7.10
2018-02-06T02:00:58.041Z,-7.10
2018-02-06T02:03:24.335Z,-7.20
2018-02-06T02:05:50.824Z,-7.20
2018-02-06T02:08:17.286Z,-7.30
2018-02-06T02:10:43.663Z,-7.30
2018-02-06T02:13:10.664Z,-7.40
2018-02-06T02:15:36.879Z,-7.50
2018-02-06T02:18:03.148Z,-7.40
2018-02-06T02:20:30.097Z,-7.50
2018-02-06T02:22:56.386Z,-7.50
2018-02-06T02:25:22.634Z,-7.40
2018-02-06T02:27:49.796Z,-7.60
2018-02-06T02:30:16.773Z,-7.60
2018-02-06T02:32:43.138Z,-7.60
2018-02-06T02:35:09.579Z,-7.60
2018-02-06T02:37:35.807Z,-7.70
2018-02-06T02:40:02.095Z,-7.60
2018-02-06T04:39:34.083Z,-7.20
2018-02-06T04:42:00.413Z,-7.10
2018-02-06T04:44:26.581Z,-7.10
2018-02-06T04:46:52.805Z,-7.10
2018-02-06T04:49:19.852Z,-6.90
2018-02-06T04:51:46.240Z,-6.90
2018-02-06T04:54:12.597Z,-7.00
2018-02-06T04:56:39.583Z,-7.00
2018-02-06T04:59:05.758Z,-7.00
2018-02-06T05:01:32.906Z,-7.00
2018-02-06T05:04:00.249Z,-6.90
2018-02-06T05:06:26.470Z,-6.90
2018-02-06T05:08:52.713Z,-6.90
2018-02-06T05:11:19.723Z,-6.90
2018-02-06T05:13:46.047Z,-6.90
2018-02-06T05:16:12.445Z,-6.90
2018-02-06T05:18:38.698Z,-7.00
2018-02-06T05:21:05.007Z,-7.00
2018-02-06T05:23:31.261Z,-7.00
2018-02-06T05:25:57.479Z,-7.10
2018-02-06T05:28:23.761Z,-7.00
2018-02-06T05:30:50.813Z,-7.00
2018-02-06T05:33:18.080Z,-7.10
2018-02-06T05:35:44.346Z,-7.10
2018-02-06T05:38:10.685Z,-7.10
2018-02-06T05:40:37.671Z,-7.20
2018-02-06T05:43:04.641Z,-7.20
2018-02-06T05:45:30.942Z,-7.20
2018-02-06T05:47:58.037Z,-7.10
2018-02-06T05:50:24.423Z,-7.10
2018-02-06T05:52:50.795Z,-7.00
2018-02-06T05:55:17.126Z,-7.10
2018-02-06T05:57:43.376Z,-7.10
2018-02-06T06:00:11.330Z,-7.10
2018-02-06T06:02:37.822Z,-7.10
2018-02-06T06:05:04.025Z,-7.10
2018-02-06T06:07:31.129Z,-7.00
2018-02-06T06:09:57.409Z,-7.00
2018-02-06T06:12:23.792Z,-6.90
2018-02-06T06:14:50.118Z,-7.00
2018-02-06T06:17:16.423Z,-6.90
2018-02-06T06:19:42.848Z,-6.90
2018-02-06T06:22:09.202Z,-6.90
2018-02-06T06:24:35.498Z,-6.80
2018-02-06T06:27:01.827Z,-6.90
2018-02-06T06:29:28.187Z,-6.80
2018-02-06T06:31:54.447Z,-6.80
2018-02-06T06:34:21.414Z,-6.90
2018-02-06T06:36:47.601Z,-6.90
2018-02-06T06:39:15.398Z,-7.00
2018-02-06T06:41:42.406Z,-7.00
2018-02-06T06:44:08.598Z,-7.00
2018-02-06T06:46:34.869Z,-7.00
2018-02-06T06:49:02.913Z,-7.10
2018-02-06T06:51:29.114Z,-7.10
2018-02-06T06:53:55.589Z,-7.20
2018-02-06T06:56:21.833Z,-7.20
2018-02-06T06:58:48.850Z,-7.30
2018-02-06T07:01:15.119Z,-7.30
2018-02-06T07:03:41.461Z,-7.30
2018-02-06T07:06:07.758Z,-7.40
2018-02-06T07:08:34.769Z,-7.40
2018-02-06T07:11:01.203Z,-7.40
2018-02-06T07:13:27.430Z,-7.40
2018-02-06T07:15:53.709Z,-7.40
2018-02-06T07:18:20.683Z,-7.50
2018-02-06T07:20:47.054Z,-7.50
2018-02-06T07:23:13.455Z,-7.50
2018-02-06T07:25:39.736Z,-7.50
2018-02-06T07:28:06.718Z,-7.50
2018-02-06T07:30:33.920Z,-7.50
2018-02-06T07:33:00.887Z,-7.40
2018-02-06T07:35:42.241Z,-7.40
2018-02-06T07:38:09.265Z,-7.30
2018-02-06T07:40:35.910Z,-7.30
2018-02-06T07:43:02.995Z,-7.20
2018-02-06T07:45:29.410Z,-7.30
2018-02-06T07:47:56.449Z,-7.30
2018-02-06T07:50:23.617Z,-7.30
2018-02-06T07:52:49.848Z,-7.30
2018-02-06T07:55:16.171Z,-7.30
2018-02-06T07:57:42.491Z,-7.40
2018-02-06T08:00:09.592Z,-7.20
2018-02-06T08:02:36.038Z,-7.30
2018-02-06T08:05:02.247Z,-7.10
2018-02-06T08:07:28.593Z,-7.10
2018-02-06T08:09:56.370Z,-6.90
2018-02-06T08:12:23.386Z,-6.80
2018-02-06T08:14:49.591Z,-6.90
2018-02-06T08:17:15.956Z,-6.70
2018-02-06T08:19:42.375Z,-6.50
2018-02-06T08:22:08.692Z,-6.40
2018-02-06T08:24:35.001Z,-6.30
2018-02-06T08:27:01.379Z,-6.20
2018-02-06T08:29:28.439Z,-6.00
2018-02-06T08:31:55.603Z,-5.90
2018-02-06T08:34:22.081Z,-5.90
2018-02-06T08:36:48.384Z,-5.80
2018-02-06T08:39:14.896Z,-5.70
2018-02-06T08:41:42.006Z,-5.60
2018-02-06T08:44:08.310Z,-5.60
2018-02-06T08:46:34.621Z,-5.60
2018-02-06T08:49:01.099Z,-5.60
2018-02-06T08:51:27.418Z,-5.60
2018-02-06T08:53:53.993Z,-5.60
2018-02-06T08:56:20.432Z,-5.50
2018-02-06T08:58:46.988Z,-5.40
2018-02-06T09:01:13.372Z,-5.40
2018-02-06T09:03:39.632Z,-5.40
2018-02-06T09:06:06.206Z,-5.30
2018-02-06T09:08:32.633Z,-5.40
2018-02-06T09:10:59.055Z,-5.50
2018-02-06T09:13:25.579Z,-5.50
2018-02-06T09:15:52.122Z,-5.50
2018-02-06T09:18:18.361Z,-5.40
2018-02-06T09:20:44.781Z,-5.30
2018-02-06T09:23:11.062Z,-5.10
2018-02-06T09:25:38.170Z,-4.90
2018-02-06T09:28:04.525Z,-4.90
2018-02-06T09:30:31.765Z,-4.60
2018-02-06T09:32:58.046Z,-4.70
2018-02-06T09:35:24.500Z,-4.60
2018-02-06T09:40:23.727Z,-4.50
2018-02-06T09:42:50.002Z,-4.30
2018-02-06T09:45:16.584Z,-4.20
2018-02-06T09:47:43.471Z,-4.30
2018-02-06T09:50:10.512Z,-4.10
2018-02-06T09:52:36.855Z,-4.10
2018-02-06T09:55:03.144Z,-4.00
2018-02-06T09:57:30.186Z,-4.10
2018-02-06T09:59:57.181Z,-3.80
2018-02-06T10:02:23.651Z,-3.90
2018-02-06T10:04:50.108Z,-3.70
2018-02-06T10:07:17.134Z,-3.40
2018-02-06T10:09:43.395Z,-3.40
2018-02-06T10:12:10.395Z,-3.20
2018-02-06T10:14:37.842Z,-3.20
2018-02-06T10:17:04.195Z,-3.00
2018-02-06T10:19:30.491Z,-2.90
2018-02-06T10:21:56.701Z,-3.00
2018-02-06T10:24:22.893Z,-3.00
2018-02-06T10:26:49.947Z,-2.90
2018-02-06T10:29:16.842Z,-2.80
2018-02-06T10:31:43.011Z,-2.80
2018-02-06T10:34:09.949Z,-2.50
2018-02-06T10:36:36.124Z,-2.50
2018-02-06T10:39:02.786Z,-2.50
2018-02-06T10:41:29.114Z,-2.40
2018-02-06T10:43:55.442Z,-2.50
2018-02-06T10:46:21.761Z,-2.50
2018-02-06T10:48:48.214Z,-2.50
2018-02-06T10:51:14.825Z,-2.50
2018-02-06T10:53:40.999Z,-2.40
2018-02-06T10:56:08.104Z,-1.90
2018-02-06T10:58:34.502Z,-1.90
2018-02-06T11:01:00.860Z,-1.70
2018-02-06T11:03:27.159Z,-1.60
2018-02-06T11:05:53.443Z,-1.50
2018-02-06T11:08:20.486Z,-1.20
2018-02-06T11:10:46.736Z,-1.20
2018-02-06T11:13:13.788Z,-1.20
2018-02-06T11:15:40.125Z,-1.20
2018-02-06T11:18:06.555Z,-1.30
2018-02-06T11:20:32.883Z,-1.30
2018-02-06T11:22:59.134Z,-1.40
2018-02-06T11:25:25.346Z,-1.40
2018-02-06T11:27:51.531Z,-1.40
2018-02-06T11:30:18.509Z,-1.50
2018-02-06T11:32:44.792Z,-1.50
2018-02-06T11:35:11.058Z,-1.40
2018-02-06T11:37:38.010Z,-1.50
2018-02-06T11:40:04.256Z,-1.50
2018-02-06T11:42:30.466Z,-1.60
2018-02-06T11:44:57.159Z,-1.50
2018-02-06T11:47:25.495Z,-1.60
2018-02-06T11:49:52.166Z,-1.50
2018-02-06T11:52:18.307Z,-1.30
2018-02-06T11:54:45.358Z,-1.30
2018-02-06T11:57:12.502Z,-1.20
2018-02-06T11:59:39.509Z,-1.20
2018-02-06T12:02:05.812Z,-1.20
2018-02-06T12:04:32.198Z,-1.10
2018-02-06T12:06:59.172Z,-1.20
2018-02-06T12:09:26.144Z,-1.20
2018-02-06T12:11:52.691Z,-1.20
2018-02-06T12:14:19.126Z,-1.20
2018-02-06T12:16:45.272Z,-1.00
2018-02-06T12:19:11.441Z,-0.80
2018-02-06T12:21:37.616Z,-0.90
2018-02-06T12:24:03.877Z,-0.90
2018-02-06T12:26:30.998Z,-1.00
2018-02-06T12:28:57.226Z,-1.00
2018-02-06T12:31:24.092Z,-0.90
2018-02-06T12:33:51.531Z,-0.80
2018-02-06T12:36:18.632Z,-0.50
2018-02-06T12:38:45.020Z,-0.60
2018-02-06T12:41:12.590Z,-0.60
2018-02-06T12:43:38.867Z,-0.60
2018-02-06T12:46:05.094Z,-0.50
2018-02-06T12:48:31.419Z,-0.40
2018-02-06T12:50:57.781Z,-0.40
2018-02-06T12:53:24.079Z,-0.40
2018-02-06T12:55:50.327Z,-0.50
2018-02-06T12:58:16.617Z,-0.50
2018-02-06T13:00:42.762Z,-0.60
2018-02-06T13:03:09.042Z,-0.60
2018-02-06T13:05:35.479Z,-0.60
2018-02-06T13:08:02.833Z,-0.80
2018-02-06T13:10:29.117Z,-0.80
2018-02-06T13:12:55.501Z,-0.80
2018-02-06T13:15:21.836Z,-0.90
2018-02-06T13:17:48.283Z,-1.00
2018-02-06T13:20:14.604Z,-1.20
2018-02-06T13:22:40.857Z,-1.30
2018-02-06T13:25:07.076Z,-1.40
2018-02-06T13:27:33.430Z,-1.40
2018-02-06T13:30:00.337Z,-1.30
2018-02-06T13:32:26.625Z,-1.30
2018-02-06T13:34:53.590Z,-0.90
2018-02-06T13:37:19.953Z,-0.90
2018-02-06T13:39:46.283Z,-0.80
2018-02-06T13:42:12.631Z,-0.70
2018-02-06T13:44:38.885Z,-0.70
2018-02-06T13:47:05.182Z,-0.70
2018-02-06T13:49:31.421Z,-0.80
2018-02-06T13:51:58.374Z,-1.10
2018-02-06T13:54:25.672Z,-1.30
2018-02-06T13:56:52.006Z,-1.30
2018-02-06T13:59:18.638Z,-1.40
2018-02-06T14:01:45.242Z,-1.30
2018-02-06T14:04:11.852Z,-1.30
2018-02-06T14:06:38.960Z,-1.40
2018-02-06T14:09:05.285Z,-1.40
2018-02-06T14:11:31.591Z,-1.40
2018-02-06T14:13:57.864Z,-1.40
2018-02-06T14:16:25.224Z,-1.40
2018-02-06T14:18:51.470Z,-1.40
2018-02-06T14:21:18.669Z,-1.40
2018-02-06T14:23:44.997Z,-1.40
2018-02-06T14:26:11.431Z,-1.40
2018-02-06T14:28:37.826Z,-1.40
2018-02-06T14:31:04.039Z,-1.40
2018-02-06T14:33:31.181Z,-1.40
2018-02-06T14:35:58.100Z,-1.40
2018-02-06T14:38:25.849Z,-1.40
2018-02-06T14:40:52.225Z,-1.40
2018-02-06T14:43:18.446Z,-1.30
2018-02-06T14:45:46.057Z,-1.20
2018-02-06T14:48:12.431Z,-1.20
2018-02-06T14:50:39.463Z,-1.30
2018-02-06T14:53:05.744Z,-1.30
2018-02-06T14:55:32.122Z,-1.40
2018-02-06T14:57:59.294Z,-1.50
2018-02-06T15:00:25.894Z,-1.60
2018-02-06T15:02:53.870Z,-1.60
2018-02-06T15:05:21.056Z,-1.60
2018-02-06T15:07:47.627Z,-1.60
2018-02-06T15:10:14.053Z,-1.60
2018-02-06T15:12:40.489Z,-1.60
2018-02-06T15:15:06.926Z,-1.60
2018-02-06T15:17:33.249Z,-1.60
2018-02-06T15:19:59.692Z,-1.60
2018-02-06T15:22:25.951Z,-1.60
2018-02-06T15:24:53.184Z,-1.60
2018-02-06T15:27:20.259Z,-1.60
2018-02-06T15:29:46.674Z,-1.60
2018-02-06T15:32:14.004Z,-1.80
2018-02-06T15:34:40.335Z,-1.80
2018-02-06T15:37:07.397Z,-2.00
2018-02-06T15:39:34.499Z,-2.00
2018-02-06T15:44:53.965Z,-2.10
2018-02-06T15:47:20.443Z,-2.10
2018-02-06T15:49:46.687Z,-2.10
2018-02-06T15:52:13.088Z,-2.20
2018-02-06T15:54:39.385Z,-2.20
2018-02-06T15:57:06.065Z,-2.20
2018-02-06T15:59:32.319Z,-2.20
2018-02-06T16:01:59.434Z,-2.30
2018-02-06T16:04:25.761Z,-2.40
2018-02-06T16:06:52.093Z,-2.50
2018-02-06T16:09:18.315Z,-2.50
2018-02-06T16:11:44.682Z,-2.60
2018-02-06T16:14:11.526Z,-2.70
2018-02-06T16:16:38.581Z,-2.80
2018-02-06T16:19:04.830Z,-2.80
2018-02-06T16:21:31.398Z,-2.90
2018-02-06T16:23:57.697Z,-2.90
2018-02-06T16:26:24.109Z,-3.00
2018-02-06T16:28:50.434Z,-3.00
2018-02-06T16:31:16.820Z,-3.10
2018-02-06T16:33:43.319Z,-3.10
2018-02-06T16:36:09.775Z,-3.10
2018-02-06T16:38:36.203Z,-3.10
2018-02-06T16:41:02.632Z,-3.10
2018-02-06T16:43:28.973Z,-3.10
2018-02-06T16:45:55.507Z,-3.10
2018-02-06T16:48:22.139Z,-3.10
2018-02-06T16:50:48.791Z,-3.10
2018-02-06T16:53:15.198Z,-3.00
2018-02-06T16:55:41.561Z,-3.00
2018-02-06T16:58:08.570Z,-3.00
2018-02-06T17:00:35.084Z,-3.00
2018-02-06T17:03:01.556Z,-3.00
2018-02-06T17:05:28.524Z,-3.00
2018-02-06T17:07:55.653Z,-3.00
2018-02-06T17:10:22.786Z,-3.00
2018-02-06T17:12:49.160Z,-3.00
2018-02-06T17:15:16.461Z,-3.10
2018-02-06T17:17:42.855Z,-3.10
2018-02-06T17:20:09.198Z,-3.10
2018-02-06T17:22:35.927Z,-3.10
2018-02-06T17:25:02.388Z,-3.10
2018-02-06T17:27:28.825Z,-3.20
2018-02-06T17:29:55.089Z,-3.20
2018-02-06T17:32:22.371Z,-3.10
2018-02-06T17:34:49.145Z,-3.10
2018-02-06T17:37:15.624Z,-3.10
2018-02-06T17:39:42.105Z,-3.10
2018-02-06T17:42:08.457Z,-3.10
2018-02-06T17:44:35.627Z,-3.10
2018-02-06T17:47:01.837Z,-3.10
2018-02-06T17:49:28.962Z,-3.10
2018-02-06T17:51:55.396Z,-3.10
2018-02-06T17:54:21.911Z,-3.00
2018-02-06T17:56:48.254Z,-3.10
2018-02-06T17:59:14.714Z,-3.10
2018-02-06T18:01:41.933Z,-3.10
2018-02-06T18:04:08.267Z,-3.10
2018-02-06T18:06:34.722Z,-3.20
2018-02-06T18:09:02.064Z,-3.20
2018-02-06T18:11:28.589Z,-3.30
2018-02-06T18:13:56.258Z,-3.20
2018-02-06T18:16:23.486Z,-3.20
2018-02-06T18:18:49.850Z,-3.20
2018-02-06T18:21:17.208Z,-3.10
2018-02-06T18:23:44.253Z,-3.10
2018-02-06T18:26:10.755Z,-3.10
2018-02-06T18:28:37.014Z,-3.10
2018-02-06T18:31:04.147Z,-3.20
2018-02-06T18:33:31.441Z,-3.20
2018-02-06T18:35:58.086Z,-3.20
2018-02-06T18:38:24.376Z,-3.30
2018-02-06T18:40:51.548Z,-3.40
2018-02-06T18:43:17.938Z,-3.40
2018-02-06T18:45:45.043Z,-3.50
2018-02-06T18:48:11.605Z,-3.50
2018-02-06T18:50:38.147Z,-3.60
2018-02-06T18:53:04.469Z,-3.60
2018-02-06T18:55:30.827Z,-3.70
2018-02-06T18:57:57.937Z,-3.90
2018-02-06T19:00:24.350Z,-3.90
2018-02-06T19:02:50.804Z,-3.90
2018-02-06T19:05:18.074Z,-3.80
2018-02-06T19:07:44.504Z,-3.80
2018-02-06T19:10:10.742Z,-3.80
2018-02-06T19:12:37.174Z,-3.80
2018-02-06T19:15:04.363Z,-3.80
2018-02-06T19:17:30.639Z,-3.80
2018-02-06T19:19:57.179Z,-3.90
2018-02-06T19:22:24.990Z,-4.00
2018-02-06T19:24:51.513Z,-4.00
2018-02-06T19:27:18.110Z,-4.00
2018-02-06T19:29:45.466Z,-4.10
2018-02-06T19:32:12.738Z,-4.10
2018-02-06T19:34:40.013Z,-4.10
2018-02-06T19:37:06.379Z,-4.10
2018-02-06T19:39:32.668Z,-4.10
2018-02-06T19:41:59.447Z,-4.20
2018-02-06T19:44:25.833Z,-4.20
2018-02-06T19:46:52.218Z,-4.30
2018-02-06T19:49:20.166Z,-4.40
2018-02-06T19:51:46.737Z,-4.40
2018-02-06T19:54:13.852Z,-4.50
2018-02-06T19:56:40.321Z,-4.50
2018-02-06T19:59:07.436Z,-4.50
2018-02-06T20:01:34.002Z,-4.50
2018-02-06T20:04:00.989Z,-4.60
2018-02-06T20:06:27.260Z,-4.60
2018-02-06T20:08:54.527Z,-4.70
2018-02-06T20:11:21.079Z,-4.70
2018-02-06T20:13:47.548Z,-4.80
2018-02-06T20:16:13.887Z,-4.90
2018-02-06T20:18:40.178Z,-5.00
2018-02-06T20:21:06.547Z,-5.00
2018-02-06T20:23:33.089Z,-5.00
2018-02-06T20:26:00.662Z,-4.90
2018-02-06T20:28:27.772Z,-4.90
2018-02-06T20:30:54.193Z,-4.90
2018-02-06T20:33:20.655Z,-4.90
2018-02-06T20:35:46.997Z,-4.80
2018-02-06T20:38:14.302Z,-4.70
2018-02-06T20:40:41.317Z,-4.80
2018-02-06T20:43:08.529Z,-4.60
2018-02-06T20:45:34.898Z,-4.70
2018-02-06T20:48:02.021Z,-4.60
2018-02-06T20:50:28.546Z,-4.60
2018-02-06T20:52:54.935Z,-4.60
2018-02-06T20:55:21.310Z,-4.50
2018-02-06T20:57:49.259Z,-4.50
2018-02-06T21:00:15.714Z,-4.50
2018-02-06T21:02:43.107Z,-4.50
2018-02-06T21:05:09.473Z,-4.50
2018-02-06T21:07:35.906Z,-4.50
2018-02-06T21:10:02.447Z,-4.40
2018-02-06T21:12:29.193Z,-4.40
2018-02-06T21:14:56.303Z,-4.30
2018-02-06T21:17:22.944Z,-4.30
2018-02-06T21:19:49.394Z,-4.30
2018-02-06T21:22:15.929Z,-4.30
2018-02-06T21:24:42.564Z,-4.30
2018-02-06T21:27:08.875Z,-4.30
2018-02-06T21:29:35.433Z,-4.30
2018-02-06T21:32:01.757Z,-4.30
2018-02-06T21:34:28.299Z,-4.40
2018-02-06T21:36:54.694Z,-4.40
2018-02-06T21:39:20.953Z,-4.40
2018-02-06T21:41:47.292Z,-4.40
2018-02-06T21:44:14.030Z,-4.40
2018-02-06T21:46:41.182Z,-4.50
2018-02-06T21:49:07.770Z,-4.50
2018-02-06T21:51:34.187Z,-4.50
2018-02-06T21:54:00.891Z,-4.40
2018-02-06T21:56:28.011Z,-4.50
2018-02-06T21:58:54.544Z,-4.50
2018-02-06T22:01:20.997Z,-4.40
2018-02-06T22:03:48.278Z,-4.30
2018-02-06T22:06:15.430Z,-4.30
2018-02-06T22:08:41.874Z,-4.40
2018-02-06T22:11:08.233Z,-4.40
2018-02-06T22:13:34.515Z,-4.40
2018-02-06T22:16:02.016Z,-4.40
2018-02-06T22:18:28.441Z,-4.40
2018-02-06T22:20:54.784Z,-4.40
2018-02-06T22:23:21.623Z,-4.40
2018-02-06T22:25:48.261Z,-4.40
2018-02-06T22:28:14.931Z,-4.50
2018-02-06T22:30:42.338Z,-4.50
2018-02-06T22:33:08.939Z,-4.50
2018-02-06T22:35:35.331Z,-4.50
2018-02-06T22:38:01.609Z,-4.50
2018-02-06T22:40:27.983Z,-4.50
2018-02-06T22:42:54.328Z,-4.50
2018-02-06T22:45:21.521Z,-4.60
2018-02-06T22:47:48.089Z,-4.60
2018-02-06T22:50:14.498Z,-4.70
2018-02-06T22:52:41.235Z,-4.70
2018-02-06T22:55:07.756Z,-4.90
2018-02-06T22:57:34.014Z,-5.10
2018-02-06T23:00:00.346Z,-5.20
2018-02-06T23:02:26.841Z,-5.30
2018-02-06T23:04:53.537Z,-5.30
2018-02-06T23:07:20.057Z,-5.50
2018-02-06T23:09:46.429Z,-5.50
2018-02-06T23:12:12.791Z,-5.70
2018-02-06T23:14:39.714Z,-5.80
2018-02-06T23:17:06.198Z,-5.90
2018-02-06T23:19:32.655Z,-6.00
2018-02-06T23:21:59.899Z,-6.10
2018-02-06T23:24:26.899Z,-6.20
2018-02-06T23:26:53.355Z,-6.20
2018-02-06T23:29:20.625Z,-6.20
2018-02-06T23:31:47.698Z,-6.30
2018-02-06T23:34:13.963Z,-6.30
2018-02-06T23:36:40.331Z,-6.50
2018-02-06T23:39:07.522Z,-6.60
2018-02-06T23:41:33.750Z,-6.60
2018-02-06T23:44:00.757Z,-6.60
2018-02-06T23:46:27.700Z,-6.80
2018-02-06T23:48:54.754Z,-6.90
2018-02-06T23:51:21.796Z,-6.90
2018-02-06T23:53:48.939Z,-6.90
2018-02-06T23:56:16.285Z,-6.90
2018-02-06T23:58:43.277Z,-7.00
